createdAt,value
2023-01-17T06:38:57.759Z,5.08
2023-01-17T06:43:59.821Z,5.05
2023-01-17T06:49:02.043Z,4.98
2023-01-17T06:54:04.233Z,4.99
2023-01-17T06:59:06.434Z,4.99
2023-01-17T07:04:08.623Z,4.92
2023-01-17T07:09:10.735Z,5.06
2023-01-17T07:14:13.769Z,4.91
2023-01-17T07:19:15.972Z,5.01
2023-01-17T07:24:18.720Z,5.03
2023-01-17T07:29:20.828Z,5.01
2023-01-17T07:34:22.867Z,5.03
2023-01-17T07:39:25.164Z,4.91
2023-01-17T07:44:27.252Z,4.95
2023-01-17T07:49:29.330Z,4.75
2023-01-17T07:54:31.373Z,4.74
2023-01-17T07:59:34.486Z,4.68
2023-01-17T08:04:36.605Z,4.72
2023-01-17T08:09:38.659Z,4.66
2023-01-17T08:14:40.716Z,4.79
2023-01-17T08:19:43.369Z,4.67
2023-01-17T08:24:45.419Z,4.82
2023-01-17T08:29:48.461Z,4.87
2023-01-17T08:34:50.571Z,5.77
2023-01-17T08:39:52.689Z,6.51
2023-01-17T08:44:54.762Z,6.34
2023-01-17T08:49:59.612Z,6.57
2023-01-17T08:55:01.957Z,6.38
2023-01-17T09:00:04.317Z,6.33
2023-01-17T09:05:07.043Z,6.37
2023-01-17T09:10:09.734Z,6.13
2023-01-17T09:15:14.701Z,6.41
2023-01-17T09:20:17.143Z,6.47
2023-01-17T09:25:19.271Z,6.69
2023-01-17T09:30:22.183Z,6.47
2023-01-17T09:35:24.559Z,6.67
2023-01-17T09:52:23.833Z,6.89
2023-01-17T09:57:57.049Z,7.11
2023-01-17T10:03:05.213Z,7.34
2023-01-17T10:08:19.273Z,8.20
2023-01-17T10:13:35.518Z,11.41
2023-01-17T10:19:19.518Z,12.43
2023-01-17T10:24:59.111Z,11.68
2023-01-17T10:30:16.963Z,12.55
2023-01-17T10:35:26.514Z,15.65
2023-01-17T10:40:50.282Z,18.76
2023-01-17T10:45:55.301Z,21.42
2023-01-17T10:51:20.315Z,20.05
2023-01-17T10:56:28.073Z,26.41
2023-01-17T11:01:30.360Z,25.24
2023-01-17T11:06:33.213Z,25.72
2023-01-17T11:11:37.500Z,28.53
2023-01-17T11:16:39.628Z,31.87
2023-01-17T11:21:54.822Z,33.13
2023-01-17T11:26:58.049Z,30.44
2023-01-17T11:32:33.691Z,35.38
2023-01-17T11:37:36.268Z,34.98
2023-01-17T11:42:38.513Z,35.28
2023-01-17T11:47:40.574Z,36.02
2023-01-17T11:52:43.382Z,37.01
2023-01-17T11:57:50.911Z,36.81
2023-01-17T12:03:16.079Z,34.97
2023-01-17T12:08:53.138Z,27.99
2023-01-17T12:14:34.463Z,34.01
2023-01-17T12:20:00.825Z,33.36
2023-01-17T12:25:24.661Z,25.62
2023-01-17T12:30:55.909Z,23.98
2023-01-17T12:36:02.963Z,20.56
2023-01-17T12:41:42.534Z,20.00
2023-01-17T12:46:54.584Z,17.65
2023-01-17T12:52:04.974Z,14.68
2023-01-17T12:57:45.677Z,13.00
2023-01-17T13:02:50.753Z,12.32
2023-01-17T13:08:10.967Z,11.42
2023-01-17T13:13:26.008Z,10.84
2023-01-17T13:18:29.857Z,10.35
2023-01-17T13:23:56.425Z,9.86
2023-01-17T13:29:20.187Z,9.66
2023-01-17T13:34:43.715Z,9.05
2023-01-17T13:40:21.811Z,8.86
2023-01-17T13:45:28.546Z,8.67
2023-01-17T13:50:36.806Z,8.55
2023-01-17T13:55:47.266Z,8.55
2023-01-17T14:00:50.611Z,8.34
2023-01-17T14:05:57.119Z,8.28
2023-01-17T14:11:09.827Z,8.15
2023-01-17T14:16:21.011Z,7.98
2023-01-17T14:21:26.297Z,8.08
2023-01-17T14:26:46.362Z,8.00
2023-01-17T14:31:49.328Z,7.89
2023-01-17T14:36:51.405Z,7.89
2023-01-17T14:41:53.504Z,7.78
2023-01-17T14:46:57.211Z,7.72
2023-01-17T14:52:03.974Z,7.65
2023-01-17T14:57:24.917Z,7.65
2023-01-17T15:02:27.220Z,7.46
2023-01-17T15:07:32.317Z,7.55
2023-01-17T15:12:36.746Z,7.44
2023-01-17T15:17:38.852Z,7.35
2023-01-17T15:22:41.012Z,7.33
2023-01-17T15:27:43.296Z,7.40
2023-01-17T15:32:49.266Z,7.44
2023-01-17T15:37:54.263Z,7.36
2023-01-17T15:42:59.380Z,7.39
2023-01-17T15:48:32.721Z,7.33
2023-01-17T15:53:40.732Z,7.30
2023-01-17T15:58:42.843Z,7.24
2023-01-17T16:03:55.329Z,7.17
2023-01-17T16:08:57.458Z,7.15
2023-01-17T16:13:59.648Z,7.13
2023-01-17T16:19:02.852Z,7.08
2023-01-17T16:24:06.043Z,7.11
2023-01-17T16:29:08.253Z,7.08
2023-01-17T16:34:14.659Z,6.97
2023-01-17T16:39:16.823Z,7.02
2023-01-17T16:44:19.498Z,6.99
2023-01-17T16:49:21.564Z,6.89
2023-01-17T16:54:23.780Z,6.95
2023-01-17T16:59:32.192Z,6.81
2023-01-17T17:04:38.841Z,6.82
2023-01-17T17:09:41.042Z,6.79
2023-01-17T17:14:43.302Z,6.64
2023-01-17T17:19:45.390Z,6.49
2023-01-17T17:24:47.428Z,6.54
2023-01-17T17:29:49.488Z,6.54
2023-01-17T17:34:51.559Z,6.42
2023-01-17T17:39:53.625Z,6.35
2023-01-17T17:44:55.706Z,6.17
2023-01-17T17:49:57.899Z,6.12
2023-01-17T17:55:00.046Z,6.08
2023-01-17T18:00:02.532Z,5.94
2023-01-17T18:05:05.041Z,6.02
2023-01-17T18:10:08.918Z,5.99
2023-01-17T18:15:11.203Z,5.89
2023-01-17T18:20:14.472Z,5.81
2023-01-17T18:25:16.688Z,5.75
2023-01-17T18:30:18.786Z,5.79
2023-01-17T18:35:20.855Z,5.74
2023-01-17T18:40:23.030Z,5.85
2023-01-17T18:45:25.077Z,5.86
2023-01-17T18:50:27.154Z,5.76
2023-01-17T18:55:29.255Z,5.84
2023-01-17T19:00:31.387Z,5.72
2023-01-17T19:05:36.213Z,5.53
2023-01-17T19:10:38.449Z,5.51
2023-01-17T19:15:41.753Z,5.50
2023-01-17T19:20:43.943Z,5.54
2023-01-17T19:25:46.025Z,5.52
2023-01-17T19:30:48.104Z,5.48
2023-01-17T19:35:50.386Z,5.37
2023-01-17T19:40:52.484Z,5.42
2023-01-17T19:45:59.361Z,5.35
2023-01-17T19:51:13.102Z,5.29
2023-01-17T19:56:17.671Z,5.18
2023-01-17T20:01:30.313Z,5.02
2023-01-17T20:06:35.635Z,5.03
2023-01-17T20:11:38.382Z,5.10
2023-01-17T20:16:40.588Z,4.98
2023-01-17T20:21:42.793Z,4.93
2023-01-17T20:26:44.949Z,4.93
2023-01-17T20:31:52.482Z,4.76
2023-01-17T20:36:57.491Z,4.86
2023-01-17T20:41:59.591Z,4.83
2023-01-17T20:47:01.777Z,4.71
2023-01-17T20:52:06.057Z,4.54
2023-01-17T20:57:08.289Z,4.49
